Time;durP1;ratioP1;P1;durP2;ratioP2;P2;SDS_P1;SDS_P2;PMS_P1;PMS_P2;Temp;Humidity;BMP_temperature;BMP_pressure;BME280_temperature;BME280_humidity;BME280_pressure;Samples;Min_cycle;Max_cycle;Signal;HPM_P1;HPM_P2
2021/08/19 00:45:09;;;;;;;0.30;0.30;;;;;;;25.77;52.29;99380.59;6180677;23;20028;-61
2021/08/19 00:47:38;;;;;;;0.10;0.10;;;;;;;25.78;52.57;99373.41;6181213;23;20464;-61
2021/08/19 00:50:05;;;;;;;0.10;0.10;;;;;;;25.77;52.61;99359.19;6180825;23;20017;-61
2021/08/19 00:52:31;;;;;;;0.03;0.03;;;;;;;25.76;52.55;99344.16;6155100;23;20013;-61
2021/08/19 00:54:58;;;;;;;0.10;0.10;;;;;;;25.76;52.30;99362.88;6154654;23;20028;-61
2021/08/19 00:57:24;;;;;;;0.10;0.10;;;;;;;25.76;52.55;99360.19;6155146;23;20017;-61
2021/08/19 00:59:52;;;;;;;0.10;0.10;;;;;;;25.75;52.24;99361.22;6180988;23;20028;-61
2021/08/19 01:02:21;;;;;;;0.10;0.10;;;;;;;25.75;52.29;99361.22;6180747;23;20017;-61
2021/08/19 01:04:47;;;;;;;0.10;0.10;;;;;;;25.76;52.35;99340.66;6181015;23;20134;-62
2021/08/19 01:07:15;;;;;;;0.00;0.00;;;;;;;25.75;52.47;99355.06;6180876;23;20038;-61
2021/08/19 01:09:42;;;;;;;0.20;0.20;;;;;;;25.78;52.56;99360.84;6131057;23;20369;-61
2021/08/19 01:12:12;;;;;;;0.10;0.10;;;;;;;25.77;52.31;99358.34;6180877;23;20032;-61
2021/08/19 01:14:38;;;;;;;;;;;;;;;25.78;52.26;99366.22;6183323;23;20095;-61
2021/08/19 01:17:11;;;;;;;0.10;0.10;;;;;;;25.78;52.29;99360.84;6182670;23;19943;-61
2021/08/19 01:19:37;;;;;;;0.10;0.10;;;;;;;25.78;52.52;99355.50;6156769;23;20096;-61
2021/08/19 01:22:03;;;;;;;0.08;0.08;;;;;;;25.77;52.22;99344.97;6183020;23;20378;-61
2021/08/19 01:24:29;;;;;;;0.10;0.10;;;;;;;25.77;52.11;99343.16;6182974;23;20028;-61
2021/08/19 01:26:55;;;;;;;0.00;0.00;;;;;;;25.77;52.20;99343.16;6182943;23;20021;-61
2021/08/19 01:29:21;;;;;;;0.05;0.05;;;;;;;25.67;52.35;99315.06;6156453;23;20017;-61
2021/08/19 01:32:06;;;;;;;0.10;0.10;;;;;;;25.75;52.49;99322.97;6183400;23;20052;-61
2021/08/19 01:34:32;;;;;;;0.10;0.10;;;;;;;25.76;52.32;99337.97;6182957;23;20025;-61
2021/08/19 01:36:58;;;;;;;0.10;0.10;;;;;;;25.74;52.48;99343.53;6182965;23;20493;-62
2021/08/19 01:39:24;;;;;;;0.10;0.10;;;;;;;25.74;52.34;99354.22;6182932;23;20067;-61
2021/08/19 01:41:50;;;;;;;0.10;0.10;;;;;;;25.65;52.62;99334.00;6182879;23;20028;-61
2021/08/19 01:44:17;;;;;;;0.10;0.10;;;;;;;25.72;52.71;99348.22;6203902;23;20311;-61
2021/08/19 01:46:42;;;;;;;0.20;0.20;;;;;;;25.71;52.51;99343.91;6212695;23;20020;-61
2021/08/19 01:49:09;;;;;;;0.10;0.10;;;;;;;25.66;52.73;99330.28;6210775;23;20020;-61
2021/08/19 01:51:35;;;;;;;0.00;0.00;;;;;;;25.69;52.75;99345.94;6213007;23;20361;-61
2021/08/19 01:54:01;;;;;;;0.10;0.10;;;;;;;25.69;52.49;99351.28;6212235;23;20027;-61
2021/08/19 01:56:27;;;;;;;0.10;0.10;;;;;;;25.64;52.66;99343.03;6212953;23;20452;-61
2021/08/19 01:58:54;;;;;;;0.10;0.10;;;;;;;25.63;52.79;99335.19;6211179;23;20017;-61
2021/08/19 02:01:21;;;;;;;0.08;0.08;;;;;;;25.66;52.72;99343.66;6212578;23;20439;-61
2021/08/19 02:03:47;;;;;;;0.10;0.10;;;;;;;25.67;52.55;99342.66;6212651;23;20016;-61
2021/08/19 02:06:13;;;;;;;0.15;0.15;;;;;;;25.59;52.56;99334.75;6210666;23;20476;-61
2021/08/19 02:08:39;;;;;;;0.10;0.10;;;;;;;25.67;52.55;99347.16;6211165;23;20017;-60
2021/08/19 02:11:05;;;;;;;0.00;0.00;;;;;;;25.70;52.42;99346.78;6212349;23;20012;-60
2021/08/19 02:13:31;;;;;;;0.08;0.08;;;;;;;25.65;52.56;99336.69;6211139;23;20023;-61
2021/08/19 02:15:58;;;;;;;0.10;0.10;;;;;;;25.69;52.50;99350.47;6186147;23;20020;-62
2021/08/19 02:18:24;;;;;;;0.28;0.28;;;;;;;25.69;52.37;99353.97;6211154;23;20471;-62
2021/08/19 02:20:51;;;;;;;0.10;0.10;;;;;;;25.60;52.41;99341.75;6213272;23;20024;-64
2021/08/19 02:23:17;;;;;;;0.00;0.00;;;;;;;25.67;52.53;99364.03;6210964;23;20075;-63
2021/08/19 02:25:43;;;;;;;0.15;0.15;;;;;;;25.65;52.45;99358.06;6212084;23;20020;-63
2021/08/19 02:28:09;;;;;;;0.10;0.10;;;;;;;25.65;52.56;99357.25;6211990;23;20043;-63
2021/08/19 02:30:35;;;;;;;0.35;0.20;;;;;;;25.68;52.47;99370.22;6213378;23;20027;-63
2021/08/19 02:33:03;;;;;;;0.10;0.10;;;;;;;25.66;52.44;99370.41;6186521;23;20021;-62
2021/08/19 02:35:29;;;;;;;0.20;0.20;;;;;;;25.68;52.48;99380.91;6212509;23;20013;-62
2021/08/19 02:37:55;;;;;;;0.43;0.43;;;;;;;25.71;52.26;99383.22;6212487;23;20461;-62
2021/08/19 02:40:22;;;;;;;0.10;0.10;;;;;;;25.67;52.31;99380.09;6210295;23;20047;-62
2021/08/19 02:42:48;;;;;;;0.20;0.20;;;;;;;25.71;52.49;99385.88;6210570;23;20016;-62
2021/08/19 02:45:19;;;;;;;0.10;0.10;;;;;;;25.71;52.10;99386.72;6212629;23;20043;-63
2021/08/19 02:48:21;;;;;;;0.10;0.10;;;;;;;25.67;52.19;99372.06;6167081;23;20075;-62
2021/08/19 02:50:49;;;;;;;0.20;0.20;;;;;;;25.76;52.21;99389.63;6141347;23;20342;-61
2021/08/19 02:53:24;;;;;;;0.00;0.00;;;;;;;25.80;51.89;99385.56;6212902;23;20028;-63
2021/08/19 02:55:52;;;;;;;0.10;0.10;;;;;;;25.85;51.97;99387.66;6186614;23;20016;-65
2021/08/19 02:58:23;;;;;;;0.10;0.10;;;;;;;25.86;51.98;99384.78;6161524;23;20020;-67
2021/08/19 03:01:03;;;;;;;0.10;0.10;;;;;;;25.84;51.64;99376.13;6168078;23;20487;-62
2021/08/19 03:03:29;;;;;;;0.20;0.20;;;;;;;25.91;51.60;99381.53;6212428;23;20095;-61
2021/08/19 03:05:55;;;;;;;0.00;0.00;;;;;;;26.00;51.49;99376.84;6212105;23;20020;-61
2021/08/19 03:08:21;;;;;;;0.10;0.10;;;;;;;26.02;51.40;99372.13;6211901;23;20448;-61
2021/08/19 03:10:48;;;;;;;0.00;0.00;;;;;;;26.09;51.24;99370.31;6212225;23;20484;-61
2021/08/19 03:13:14;;;;;;;0.10;0.10;;;;;;;26.17;50.92;99365.69;6211889;23;20021;-62
2021/08/19 03:15:40;;;;;;;0.10;0.10;;;;;;;26.22;50.71;99370.44;6212112;23;20023;-61
2021/08/19 03:18:06;;;;;;;0.00;0.00;;;;;;;26.26;50.67;99369.03;6212131;23;20017;-60
2021/08/19 03:20:31;;;;;;;0.10;0.10;;;;;;;26.25;50.51;99362.03;6212416;23;20350;-62
2021/08/19 03:22:58;;;;;;;0.10;0.10;;;;;;;26.30;50.51;99359.59;6212288;23;20024;-62
2021/08/19 03:25:25;;;;;;;0.20;0.20;;;;;;;26.29;50.48;99349.91;6211689;23;20024;-62
2021/08/19 03:27:57;;;;;;;0.00;0.00;;;;;;;26.26;50.51;99342.28;6212000;23;20469;-61
2021/08/19 03:30:23;;;;;;;0.00;0.00;;;;;;;26.29;50.41;99350.72;6211952;23;20047;-62
2021/08/19 03:32:49;;;;;;;0.20;0.20;;;;;;;26.34;50.34;99355.50;6212404;23;20020;-61
2021/08/19 03:35:15;;;;;;;0.10;0.10;;;;;;;26.31;50.59;99353.19;6185186;23;20391;-61
2021/08/19 03:37:41;;;;;;;0.10;0.10;;;;;;;26.29;50.73;99353.41;6212258;23;20021;-61
2021/08/19 03:40:08;;;;;;;0.10;0.10;;;;;;;26.33;50.40;99353.84;6211405;23;20028;-60
2021/08/19 03:42:35;;;;;;;0.10;0.10;;;;;;;26.57;50.07;99360.56;6212077;23;20094;-60
2021/08/19 03:45:05;;;;;;;0.10;0.10;;;;;;;27.14;48.42;99352.97;6211420;23;20043;-60
2021/08/19 03:47:31;;;;;;;0.10;0.10;;;;;;;27.62;47.40;99356.38;6211664;23;20522;-60
2021/08/19 03:49:58;;;;;;;0.10;0.10;;;;;;;27.60;47.38;99358.44;6211662;23;20048;-61
2021/08/19 03:52:24;;;;;;;0.20;0.20;;;;;;;27.50;47.28;99359.88;6211527;23;20584;-60
2021/08/19 03:54:51;;;;;;;0.10;0.10;;;;;;;27.43;47.41;99370.56;6211566;23;20369;-60
2021/08/19 03:57:17;;;;;;;0.10;0.10;;;;;;;27.42;47.28;99366.25;6211411;23;20183;-60
2021/08/19 04:00:12;;;;;;;0.10;0.10;;;;;;;27.44;47.60;99364.19;6211602;23;20066;-60
2021/08/19 04:05:56;;;;;;;0.10;0.10;;;;;;;27.47;47.32;99358.44;6211600;23;20510;-61
2021/08/19 04:08:22;;;;;;;0.10;0.10;;;;;;;27.54;47.27;99353.91;6211640;23;20352;-62
2021/08/19 04:10:48;;;;;;;0.10;0.10;;;;;;;27.60;46.88;99347.72;6210053;23;20012;-61
2021/08/19 04:13:14;;;;;;;0.38;0.38;;;;;;;27.58;46.73;99340.91;6209544;23;20023;-61
2021/08/19 04:15:40;;;;;;;0.10;0.10;;;;;;;27.60;46.88;99347.72;6211479;23;20059;-61
2021/08/19 04:18:06;;;;;;;0.10;0.10;;;;;;;27.50;47.31;99352.66;6211252;23;20108;-60
2021/08/19 04:20:33;;;;;;;0.00;0.00;;;;;;;27.39;47.48;99354.03;6211318;23;20334;-61
2021/08/19 04:23:50;;;;;;;0.10;0.10;;;;;;;27.40;47.48;99362.91;6211205;23;20035;-60
2021/08/19 04:26:41;;;;;;;0.10;0.10;;;;;;;27.37;47.58;99361.47;6211583;23;20526;-61
2021/08/19 04:32:04;;;;;;;0.10;0.10;;;;;;;27.33;47.86;99368.25;6211418;23;20069;-62
2021/08/19 04:34:30;;;;;;;0.10;0.10;;;;;;;27.32;47.92;99380.00;6211090;23;20020;-59
2021/08/19 04:36:56;;;;;;;0.10;0.10;;;;;;;27.31;47.71;99380.22;6211121;23;20027;-59
2021/08/19 04:39:22;;;;;;;0.20;0.20;;;;;;;27.25;47.93;99375.69;6210901;23;20020;-62
2021/08/19 04:42:13;;;;;;;0.30;0.30;;;;;;;27.20;47.88;99383.50;6211327;23;20062;-61
2021/08/19 04:44:39;;;;;;;0.17;0.17;;;;;;;27.16;48.22;99366.19;6184809;23;20029;-61
2021/08/19 04:47:30;;;;;;;0.35;0.35;;;;;;;27.17;48.28;99374.00;6206955;23;20043;-60
2021/08/19 04:50:21;;;;;;;0.10;0.10;;;;;;;27.17;48.25;99373.19;6181042;23;20088;-60
2021/08/19 04:52:47;;;;;;;0.10;0.10;;;;;;;27.20;48.06;99378.13;6181218;23;20469;-60
2021/08/19 04:55:39;;;;;;;0.10;0.10;;;;;;;27.23;47.90;99372.38;6181108;23;20052;-60
2021/08/19 04:58:58;;;;;;;0.10;0.10;;;;;;;27.28;47.57;99369.91;6181703;23;20078;-60
2021/08/19 05:04:40;;;;;;;0.00;0.00;;;;;;;27.47;47.14;99363.78;6181014;23;20016;-60
2021/08/19 05:07:32;;;;;;;0.10;0.10;;;;;;;27.58;47.09;99371.25;6181079;23;20365;-61
2021/08/19 05:10:48;;;;;;;0.30;0.25;;;;;;;27.65;46.71;99355.94;6181281;23;20376;-61
2021/08/19 05:14:04;;;;;;;0.08;0.08;;;;;;;28.16;45.60;99368.75;6181019;23;20129;-61
2021/08/19 05:16:56;;;;;;;0.20;0.20;;;;;;;28.72;44.26;99364.53;6180959;23;20484;-61
2021/08/19 05:19:47;;;;;;;0.20;0.20;;;;;;;29.87;41.94;99361.59;6180751;23;20032;-60
2021/08/19 05:22:38;;;;;;;0.13;0.13;;;;;;;30.17;41.25;99368.97;6181164;23;20020;-61
2021/08/19 05:25:05;;;;;;;0.10;0.10;;;;;;;30.48;40.95;99364.31;6180867;23;20075;-61
2021/08/19 05:27:57;;;;;;;0.30;0.30;;;;;;;30.93;39.61;99364.78;6181214;23;20487;-61
2021/08/19 05:30:48;;;;;;;0.22;0.22;;;;;;;31.60;38.43;99365.56;6181179;23;20025;-60
2021/08/19 05:33:40;;;;;;;0.20;0.20;;;;;;;32.07;37.33;99360.25;6181185;23;20016;-61
2021/08/19 05:36:09;;;;;;;0.20;0.20;;;;;;;32.42;36.97;99369.97;6154756;23;20357;-61
2021/08/19 05:39:51;;;;;;;0.93;0.43;;;;;;;32.36;36.92;99359.28;6180965;23;20032;-60
2021/08/19 05:42:17;;;;;;;0.28;0.28;;;;;;;32.34;37.02;99359.50;6180613;23;20024;-61
2021/08/19 05:45:09;;;;;;;0.40;0.40;;;;;;;32.72;36.31;99364.41;6180598;23;20021;-61
2021/08/19 05:48:25;;;;;;;0.10;0.10;;;;;;;33.06;35.66;99356.38;6194029;23;20083;-63
2021/08/19 05:51:19;;;;;;;0.20;0.20;;;;;;;33.21;35.08;99351.31;6210785;23;20016;-63
2021/08/19 05:54:10;;;;;;;0.30;0.30;;;;;;;33.50;34.73;99355.63;6210638;23;20016;-62
2021/08/19 05:56:36;;;;;;;0.32;0.32;;;;;;;33.74;34.17;99359.84;6210827;23;20076;-62
2021/08/19 05:59:06;;;;;;;0.10;0.10;;;;;;;33.79;33.85;99359.94;6210910;23;20109;-62
2021/08/19 06:01:33;;;;;;;0.30;0.30;;;;;;;33.93;33.71;99344.97;6212318;23;20021;-62
2021/08/19 06:04:00;;;;;;;0.10;0.10;;;;;;;34.06;33.57;99359.25;6210799;23;20492;-62
2021/08/19 06:06:26;;;;;;;0.28;0.28;;;;;;;34.23;33.27;99360.09;6212558;23;20027;-62
2021/08/19 06:08:52;;;;;;;0.10;0.10;;;;;;;34.45;32.83;99352.78;6213127;23;20021;-62
2021/08/19 06:14:36;;;;;;;0.50;0.50;;;;;;;34.95;32.24;99364.28;6212184;23;20032;-62
2021/08/19 06:17:04;;;;;;;0.25;0.25;;;;;;;36.12;30.33;99368.97;6212638;23;20099;-62
2021/08/19 06:19:55;;;;;;;0.20;0.20;;;;;;;39.29;25.63;99370.25;6212599;23;20495;-62
2021/08/19 06:22:23;;;;;;;0.10;0.10;;;;;;;39.81;24.41;99366.84;6210452;23;20460;-62
2021/08/19 06:27:43;;;;;;;0.20;0.20;;;;;;;40.81;23.21;99369.63;6212972;23;20021;-63
2021/08/19 06:30:10;;;;;;;0.15;0.15;;;;;;;41.32;22.29;99369.75;6212040;23;20021;-62
2021/08/19 06:32:39;;;;;;;0.20;0.20;;;;;;;40.07;24.15;99360.03;6210664;23;20020;-63
2021/08/19 06:35:06;;;;;;;0.20;0.20;;;;;;;40.27;24.25;99369.16;6212218;23;20405;-63
2021/08/19 06:37:34;;;;;;;0.10;0.10;;;;;;;38.99;25.07;99360.28;6212048;23;20445;-63
2021/08/19 06:40:04;;;;;;;0.10;0.10;;;;;;;38.46;26.23;99361.03;6212208;23;20020;-63
2021/08/19 06:42:31;;;;;;;0.10;0.10;;;;;;;37.36;27.78;99362.69;6210245;23;20021;-63
2021/08/19 06:44:57;;;;;;;0.25;0.25;;;;;;;36.16;29.69;99358.38;6212131;23;20021;-64
2021/08/19 06:47:25;;;;;;;0.17;0.17;;;;;;;34.99;31.78;99364.59;6210428;23;20401;-63
2021/08/19 06:50:12;;;;;;;0.10;0.10;;;;;;;34.06;33.50;99364.69;6211416;23;20027;-64
2021/08/19 06:53:00;;;;;;;0.20;0.20;;;;;;;33.46;34.73;99374.25;6212499;23;20020;-63
2021/08/19 06:55:46;;;;;;;0.10;0.10;;;;;;;32.99;35.53;99375.47;6213241;23;20025;-60
2021/08/19 06:58:58;;;;;;;0.28;0.25;;;;;;;32.65;36.31;99382.66;6213787;23;20103;-63
2021/08/19 07:02:21;;;;;;;0.15;0.15;;;;;;;32.37;36.98;99382.53;6213965;23;20079;-64
2021/08/19 07:05:08;;;;;;;0.10;0.10;;;;;;;32.33;37.20;99384.06;6211173;23;20467;-62
2021/08/19 07:08:00;;;;;;;0.15;0.15;;;;;;;32.28;37.48;99394.75;6213683;23;20021;-64
2021/08/19 07:10:51;;;;;;;0.20;0.20;;;;;;;32.08;37.64;99395.09;6211064;23;20020;-63
2021/08/19 07:13:41;;;;;;;1.08;0.80;;;;;;;31.89;38.25;99391.66;6212968;23;20065;-64
2021/08/19 07:16:29;;;;;;;0.20;0.20;;;;;;;31.73;38.48;99395.03;6213291;23;20048;-62
2021/08/19 07:19:19;;;;;;;0.15;0.15;;;;;;;32.09;38.21;99390.53;6213646;23;20027;-62
2021/08/19 07:25:16;;;;;;;0.10;0.10;;;;;;;31.67;38.70;99387.88;6212722;23;20048;-63
2021/08/19 07:28:03;;;;;;;0.10;0.10;;;;;;;31.61;38.75;99387.97;6212555;23;20369;-63
2021/08/19 07:30:50;;;;;;;0.30;0.20;;;;;;;31.79;38.54;99371.69;6212948;23;20020;-60
2021/08/19 07:33:37;;;;;;;0.22;0.22;;;;;;;31.94;38.13;99383.66;6212465;23;20032;-64
2021/08/19 07:36:28;;;;;;;0.13;0.13;;;;;;;32.00;38.09;99371.91;6211992;23;20456;-64
2021/08/19 07:39:15;;;;;;;0.10;0.10;;;;;;;31.95;38.44;99374.53;6212424;23;20477;-62
2021/08/19 07:42:03;;;;;;;0.10;0.10;;;;;;;32.05;38.15;99373.13;6212330;23;20364;-63
2021/08/19 07:45:15;;;;;;;0.20;0.20;;;;;;;32.68;37.08;99368.66;6211387;23;20023;-60
2021/08/19 07:48:18;;;;;;;0.15;0.15;;;;;;;33.06;35.92;99373.44;6211200;23;20032;-65
2021/08/19 07:51:23;;;;;;;0.13;0.13;;;;;;;33.18;35.66;99373.44;6191630;23;20021;-62
2021/08/19 07:54:34;;;;;;;0.20;0.20;;;;;;;33.16;35.92;99370.16;6211348;23;20025;-66
2021/08/19 07:57:49;;;;;;;0.10;0.10;;;;;;;33.11;36.00;99378.19;6211506;23;20150;-63
2021/08/19 08:00:39;;;;;;;0.40;0.40;;;;;;;33.02;35.75;99365.00;6212119;23;20028;-66
2021/08/19 08:04:20;;;;;;;0.25;0.25;;;;;;;32.94;36.36;99372.69;6211018;23;20012;-63
2021/08/19 08:07:32;;;;;;;0.10;0.10;;;;;;;32.74;36.35;99370.38;6212236;23;20510;-61
2021/08/19 08:13:34;;;;;;;0.10;0.10;;;;;;;32.53;36.89;99362.06;6210894;23;20494;-63
2021/08/19 08:16:51;;;;;;;0.10;0.10;;;;;;;32.46;37.29;99359.50;6212434;23;20020;-62
2021/08/19 08:19:38;;;;;;;0.05;0.05;;;;;;;32.30;37.63;99360.19;6211028;23;20021;-63
2021/08/19 08:23:21;;;;;;;0.20;0.20;;;;;;;32.33;37.27;99357.06;6210917;23;20025;-63
2021/08/19 08:26:32;;;;;;;0.13;0.13;;;;;;;32.07;38.03;99352.13;6211834;23;20488;-62
2021/08/19 09:17:40;;;;;;;0.10;0.10;;;;;;;32.20;37.68;99335.69;6205310;23;20043;-61
2021/08/19 09:20:33;;;;;;;0.10;0.10;;;;;;;32.16;37.60;99334.50;6181165;23;20261;-61
2021/08/19 09:23:18;;;;;;;0.10;0.10;;;;;;;32.07;37.83;99317.00;6159343;23;20029;-63
2021/08/19 09:26:04;;;;;;;0.10;0.10;;;;;;;31.98;37.97;99306.50;6181029;23;20025;-62
2021/08/19 09:28:50;;;;;;;0.20;0.20;;;;;;;32.06;38.12;99316.19;6181107;23;20056;-62
2021/08/19 09:31:37;;;;;;;0.20;0.20;;;;;;;31.99;37.92;99308.16;6159131;23;20028;-63
2021/08/19 09:34:23;;;;;;;0.10;0.10;;;;;;;31.96;37.96;99308.63;6160151;23;20071;-63
2021/08/19 09:37:10;;;;;;;0.32;0.32;;;;;;;31.85;38.35;99312.16;6161449;23;20021;-62
2021/08/19 09:39:58;;;;;;;0.20;0.20;;;;;;;31.74;38.69;99312.16;6182990;23;20021;-63
2021/08/19 09:42:45;;;;;;;0.13;0.13;;;;;;;31.67;38.44;99312.28;6182774;23;20496;-62
2021/08/19 09:45:31;;;;;;;0.20;0.20;;;;;;;31.63;38.94;99312.97;6182394;23;20481;-63
2021/08/19 09:48:17;;;;;;;0.10;0.10;;;;;;;31.56;38.86;99315.78;6182938;23;20029;-63
2021/08/19 09:51:12;;;;;;;0.10;0.10;;;;;;;31.49;39.00;99304.22;6182534;23;20473;-63
2021/08/19 09:53:58;;;;;;;0.28;0.28;;;;;;;31.41;39.17;99307.28;6183242;23;20487;-62
2021/08/19 09:56:44;;;;;;;0.10;0.10;;;;;;;31.35;39.25;99308.19;6182332;23;20401;-63
2021/08/19 09:59:38;;;;;;;0.20;0.20;;;;;;;31.32;39.35;99303.25;6161017;23;20032;-63
2021/08/19 10:02:25;;;;;;;0.10;0.10;;;;;;;31.21;39.66;99306.75;6182885;23;20108;-63
2021/08/19 10:05:11;;;;;;;0.10;0.10;;;;;;;31.07;39.74;99305.31;6182617;23;20104;-62
2021/08/19 10:07:58;;;;;;;0.10;0.10;;;;;;;31.01;39.93;99298.97;6160970;23;20356;-62
2021/08/19 10:10:44;;;;;;;0.20;0.20;;;;;;;31.02;39.97;99307.88;6182345;23;20021;-63
2021/08/19 10:13:30;;;;;;;0.10;0.10;;;;;;;31.08;39.94;99307.78;6160919;23;20075;-63
2021/08/19 10:16:16;;;;;;;0.10;0.10;;;;;;;31.13;40.02;99298.97;6160876;23;20048;-63
2021/08/19 10:19:06;;;;;;;0.63;0.63;;;;;;;31.12;39.56;99286.56;6172256;23;20115;-62
2021/08/19 10:22:08;;;;;;;0.10;0.10;;;;;;;31.25;39.64;99302.56;6212417;23;20020;-62
2021/08/19 10:24:54;;;;;;;0.20;0.20;;;;;;;31.20;39.69;99294.31;6213043;23;20079;-63
2021/08/19 10:27:39;;;;;;;0.08;0.08;;;;;;;31.23;39.83;99305.47;6211425;23;20031;-61
2021/08/19 10:30:25;;;;;;;0.20;0.20;;;;;;;31.16;39.58;99303.91;6212824;23;20020;-61
2021/08/19 10:33:11;;;;;;;0.10;0.10;;;;;;;31.19;39.93;99314.25;6211148;23;20503;-60
2021/08/19 10:35:57;;;;;;;0.17;0.17;;;;;;;31.15;39.67;99313.88;6190565;23;20066;-61
2021/08/19 10:38:43;;;;;;;0.30;0.30;;;;;;;31.23;39.66;99316.25;6212447;23;20020;-59
2021/08/19 10:41:32;;;;;;;0.20;0.20;;;;;;;31.29;39.45;99314.50;6212498;23;20091;-60
2021/08/19 10:44:18;;;;;;;0.17;0.17;;;;;;;31.34;39.54;99306.56;6212610;23;20087;-60
2021/08/19 10:47:04;;;;;;;0.10;0.10;;;;;;;31.43;39.36;99314.09;6210548;23;20360;-61
2021/08/19 10:49:50;;;;;;;0.17;0.17;;;;;;;31.46;39.04;99318.19;6210878;23;20032;-61
2021/08/19 10:52:36;;;;;;;0.90;0.65;;;;;;;31.21;39.13;99295.97;6211207;23;20381;-62
2021/08/19 10:55:21;;;;;;;0.10;0.10;;;;;;;31.15;39.89;99313.09;6211185;23;20108;-62
2021/08/19 10:58:27;;;;;;;0.10;0.10;;;;;;;31.01;40.09;99322.41;6212561;23;20515;-61
2021/08/19 11:01:13;;;;;;;0.20;0.20;;;;;;;30.92;40.34;99319.19;6212361;23;20020;-63
2021/08/19 11:03:59;;;;;;;0.10;0.10;;;;;;;30.90;40.39;99305.91;6212593;23;20025;-62
2021/08/19 11:06:51;;;;;;;0.10;0.10;;;;;;;30.95;40.35;99319.59;6210745;23;20391;-62
2021/08/19 11:09:37;;;;;;;0.10;0.10;;;;;;;30.93;40.41;99312.72;6212674;23;20039;-61
2021/08/19 11:12:24;;;;;;;0.10;0.10;;;;;;;30.95;40.32;99310.63;6211306;23;20024;-62
2021/08/19 11:15:10;;;;;;;0.10;0.10;;;;;;;30.94;40.38;99306.28;6211064;23;20027;-62
2021/08/19 11:17:57;;;;;;;0.10;0.10;;;;;;;30.99;40.04;99304.56;6210308;23;20516;-63
2021/08/19 11:20:46;;;;;;;0.30;0.30;;;;;;;31.11;39.87;99303.78;6189844;23;20103;-62
2021/08/19 11:23:34;;;;;;;0.32;0.32;;;;;;;31.12;39.68;99291.97;6212217;23;20031;-61
2021/08/19 11:26:20;;;;;;;0.20;0.20;;;;;;;31.23;39.47;99299.25;6212003;23;20095;-61
2021/08/19 11:29:06;;;;;;;0.20;0.20;;;;;;;31.31;39.15;99293.53;6211935;23;20360;-61
2021/08/19 11:31:52;;;;;;;0.30;0.30;;;;;;;31.47;38.91;99306.34;6211916;23;20322;-63
2021/08/19 11:34:42;;;;;;;0.10;0.10;;;;;;;31.52;38.77;99311.06;6189803;23;20021;-63
2021/08/19 11:37:30;;;;;;;0.05;0.05;;;;;;;31.46;38.64;99300.13;6190109;23;20346;-63
2021/08/19 11:40:27;;;;;;;0.10;0.10;;;;;;;31.39;39.07;99315.59;6190725;23;20028;-61
2021/08/19 11:43:31;;;;;;;0.15;0.15;;;;;;;31.29;39.15;99314.50;6212560;23;20335;-61
2021/08/19 11:46:27;;;;;;;0.43;0.43;;;;;;;31.20;39.42;99305.09;6211799;23;20031;-62
2021/08/19 11:49:23;;;;;;;0.10;0.10;;;;;;;31.15;39.46;99318.47;6213070;23;20021;-62
2021/08/19 11:52:14;;;;;;;0.10;0.10;;;;;;;31.09;39.66;99319.38;6150997;23;20025;-62
2021/08/19 11:55:00;;;;;;;0.00;0.00;;;;;;;31.05;40.01;99318.22;6190122;23;20292;-62
2021/08/19 11:57:45;;;;;;;0.10;0.10;;;;;;;31.00;39.83;99313.50;6189732;23;20397;-62
2021/08/19 12:00:31;;;;;;;1.63;0.22;;;;;;;30.91;40.29;99309.44;6169230;23;20082;-63
2021/08/19 12:03:17;;;;;;;0.10;0.10;;;;;;;30.89;40.19;99320.44;6211929;23;20020;-63
2021/08/19 12:06:11;;;;;;;0.10;0.10;;;;;;;30.90;40.11;99316.69;6211542;23;20341;-61
2021/08/19 12:08:58;;;;;;;0.10;0.10;;;;;;;30.79;40.11;99306.69;6211590;23;20043;-61
2021/08/19 12:11:45;;;;;;;0.10;0.10;;;;;;;30.79;40.54;99312.06;6189369;23;20021;-61
2021/08/19 12:14:31;;;;;;;0.22;0.22;;;;;;;30.74;40.77;99322.72;6189935;23;20044;-63
2021/08/19 12:17:17;;;;;;;0.17;0.17;;;;;;;30.71;40.71;99312.41;6211631;23;20047;-61
2021/08/19 12:20:09;;;;;;;0.00;0.00;;;;;;;30.78;40.75;99307.75;6169178;23;20101;-62
2021/08/19 12:22:54;;;;;;;0.17;0.17;;;;;;;30.86;40.59;99304.72;6211702;23;20020;-63
2021/08/19 12:25:40;;;;;;;0.10;0.10;;;;;;;30.86;40.39;99296.63;6189390;23;20031;-61
2021/08/19 12:28:26;;;;;;;0.10;0.10;;;;;;;30.89;40.36;99304.25;6211790;23;20025;-62
2021/08/19 12:31:12;;;;;;;0.10;0.10;;;;;;;30.85;40.20;99303.09;6211323;23;20545;-62
2021/08/19 12:34:02;;;;;;;0.10;0.10;;;;;;;30.75;40.68;99302.00;6189137;23;20071;-61
2021/08/19 12:36:48;;;;;;;2.28;1.42;;;;;;;30.67;40.59;99304.97;6211469;23;20468;-62
2021/08/19 12:39:44;;;;;;;0.10;0.10;;;;;;;30.68;40.73;99312.84;6211756;23;20108;-64
2021/08/19 12:42:31;;;;;;;0.15;0.15;;;;;;;30.64;40.97;99311.66;6211422;23;20415;-62
2021/08/19 12:45:21;;;;;;;0.35;0.35;;;;;;;30.61;40.94;99311.28;6189449;23;20025;-63
2021/08/19 12:48:08;;;;;;;0.00;0.00;;;;;;;30.58;41.02;99319.81;6211650;23;20027;-65
2021/08/19 12:50:53;;;;;;;0.20;0.20;;;;;;;30.54;41.14;99313.22;6211263;23;20024;-62
2021/08/19 12:54:00;;;;;;;0.10;0.10;;;;;;;30.51;41.25;99301.03;6189206;23;20028;-63
2021/08/19 12:56:57;;;;;;;0.10;0.10;;;;;;;30.51;41.03;99322.59;6211256;23;20020;-63
2021/08/19 12:59:44;;;;;;;0.10;0.10;;;;;;;30.40;41.44;99304.47;6211244;23;20103;-62
2021/08/19 13:02:30;;;;;;;0.20;0.20;;;;;;;30.37;41.48;99286.03;6189273;23;20024;-62
2021/08/19 13:05:17;;;;;;;0.70;0.30;;;;;;;30.43;41.17;99295.97;6211217;23;20032;-62
2021/08/19 13:08:04;;;;;;;0.10;0.10;;;;;;;30.37;41.10;99296.81;6211940;23;20024;-62
2021/08/19 13:10:49;;;;;;;0.10;0.10;;;;;;;30.40;41.28;99305.31;6191233;23;20067;-62
2021/08/19 13:13:35;;;;;;;0.00;0.00;;;;;;;30.35;41.31;99293.53;6213692;23;20021;-63
2021/08/19 13:16:21;;;;;;;0.20;0.20;;;;;;;30.38;41.42;99299.31;6213367;23;20020;-62
2021/08/19 13:19:10;;;;;;;0.20;0.20;;;;;;;30.37;41.59;99294.13;6182621;23;20036;-62
2021/08/19 13:21:55;;;;;;;0.10;0.10;;;;;;;30.39;41.31;99300.13;6211915;23;20027;-63
2021/08/19 13:24:42;;;;;;;0.00;0.00;;;;;;;30.38;41.27;99301.16;6213305;23;20020;-64
2021/08/19 13:27:28;;;;;;;0.00;0.00;;;;;;;30.32;41.44;99299.38;6213022;23;20025;-64
2021/08/19 13:30:14;;;;;;;0.00;0.00;;;;;;;30.20;41.63;99293.91;6213415;23;20020;-64
2021/08/19 13:32:59;;;;;;;0.10;0.10;;;;;;;30.29;41.67;99297.13;6211789;23;20040;-64
2021/08/19 13:35:45;;;;;;;0.10;0.10;;;;;;;30.29;41.72;99299.81;6213098;23;20024;-64
2021/08/19 13:38:31;;;;;;;0.15;0.15;;;;;;;30.22;41.68;99304.47;6213302;23;20104;-64
2021/08/19 13:41:17;;;;;;;0.10;0.10;;;;;;;30.17;41.80;99302.44;6212014;23;20063;-64
2021/08/19 13:44:02;;;;;;;0.15;0.15;;;;;;;30.12;41.78;99296.06;6213074;23;20048;-64
2021/08/19 13:46:49;;;;;;;0.10;0.10;;;;;;;30.04;41.81;99289.09;6212725;23;20032;-63
2021/08/19 13:49:35;;;;;;;0.10;0.10;;;;;;;30.04;42.00;99297.19;6213223;23;20020;-63
2021/08/19 13:52:20;;;;;;;0.20;0.20;;;;;;;30.01;42.21;99299.53;6213106;23;20056;-63
2021/08/19 13:55:06;;;;;;;0.10;0.10;;;;;;;29.95;42.19;99295.84;6213241;23;20103;-64
2021/08/19 13:57:52;;;;;;;0.20;0.20;;;;;;;29.90;42.24;99296.53;6211591;23;20028;-65
2021/08/19 14:00:38;;;;;;;0.40;0.40;;;;;;;29.89;42.34;99292.16;6212787;23;20031;-64
2021/08/19 14:03:24;;;;;;;0.20;0.20;;;;;;;29.89;42.38;99299.41;6170032;23;20024;-62
2021/08/19 14:06:10;;;;;;;0.20;0.20;;;;;;;29.84;42.34;99299.28;6212712;23;20062;-63
2021/08/19 14:08:56;;;;;;;0.00;0.00;;;;;;;29.83;42.32;99303.84;6187616;23;20020;-61
2021/08/19 14:11:42;;;;;;;0.10;0.10;;;;;;;29.77;42.44;99303.84;6212876;23;20162;-62
2021/08/19 14:14:28;;;;;;;0.10;0.10;;;;;;;29.69;42.68;99299.56;6211428;23;20040;-63
2021/08/19 14:17:14;;;;;;;0.13;0.13;;;;;;;29.61;42.81;99310.63;6212934;23;20021;-63
2021/08/19 14:20:00;;;;;;;0.00;0.00;;;;;;;29.54;42.93;99299.09;6182176;23;20020;-63
2021/08/19 14:22:48;;;;;;;0.10;0.10;;;;;;;29.49;42.99;99304.28;6182214;23;20021;-63
2021/08/19 14:25:33;;;;;;;0.10;0.10;;;;;;;29.42;43.23;99306.22;6182635;23;20489;-63
2021/08/19 14:28:19;;;;;;;0.38;0.38;;;;;;;29.37;43.28;99303.38;6182285;23;20024;-63
2021/08/19 14:31:05;;;;;;;0.13;0.13;;;;;;;29.27;43.57;99309.22;6160399;23;20369;-63
2021/08/19 14:33:51;;;;;;;0.10;0.10;;;;;;;29.24;43.73;99314.19;6182417;23;20437;-64
2021/08/19 14:36:37;;;;;;;0.10;0.10;;;;;;;29.22;44.03;99310.91;6182385;23;20104;-63